Time;durP1;ratioP1;P1;durP2;ratioP2;P2;SDS_P1;SDS_P2;PMS_P1;PMS_P2;Temp;Humidity;BMP_temperature;BMP_pressure;BME280_temperature;BME280_humidity;BME280_pressure;Samples;Min_cycle;Max_cycle;Signal;HPM_P1;HPM_P2
2022/07/15 00:00:43;;;;;;;1.23;0.60;;;19.20;81.30;;;19.60;64.12;101476.97;5187700;28;20514;-74
2022/07/15 00:03:16;;;;;;;3.30;1.15;;;19.20;81.80;;;19.56;64.44;101471.59;5186265;28;20045;-73
2022/07/15 00:05:49;;;;;;;1.30;1.00;;;19.10;82.10;;;19.51;64.64;101468.94;5187745;28;20049;-72
2022/07/15 00:08:21;;;;;;;1.55;0.82;;;19.10;82.40;;;19.48;64.66;101469.78;5187325;28;20042;-73
2022/07/15 00:10:53;;;;;;;2.38;0.90;;;19.00;82.60;;;19.45;65.00;101471.53;5187565;28;20121;-73
2022/07/15 00:13:26;;;;;;;1.13;1.00;;;19.00;83.00;;;19.40;65.20;101470.59;5187441;28;20403;-74
2022/07/15 00:15:58;;;;;;;2.17;0.90;;;18.90;83.30;;;19.35;65.50;101464.38;5187437;28;20457;-74
2022/07/15 00:18:30;;;;;;;3.38;1.02;;;18.90;83.60;;;19.30;65.79;101466.06;5187202;28;20394;-74
2022/07/15 00:21:03;;;;;;;1.77;0.85;;;18.90;84.10;;;19.27;66.13;101466.94;5187303;28;20041;-74
2022/07/15 00:23:36;;;;;;;1.63;0.90;;;18.80;84.40;;;19.23;66.30;101468.69;5187312;28;20041;-73
2022/07/15 00:26:08;;;;;;;1.67;1.00;;;18.90;84.80;;;19.20;66.55;101471.28;5187047;28;20077;-73
2022/07/15 00:28:41;;;;;;;1.95;1.00;;;18.80;85.00;;;19.17;66.58;101481.84;5186948;28;20069;-74
2022/07/15 00:31:13;;;;;;;1.83;1.00;;;18.80;85.30;;;19.15;66.75;101472.97;5185762;28;20045;-74
2022/07/15 00:33:45;;;;;;;1.73;0.85;;;18.80;85.60;;;19.14;66.88;101473.84;5185790;28;20048;-74
2022/07/15 00:36:19;;;;;;;1.38;0.95;;;18.70;85.80;;;19.14;66.98;101476.50;5187133;28;20518;-74
2022/07/15 00:38:52;;;;;;;2.03;1.20;;;18.70;86.00;;;19.13;67.11;101474.72;5169165;28;20038;-74
2022/07/15 00:41:24;;;;;;;1.45;0.90;;;18.70;86.40;;;19.09;67.10;101478.19;5185667;28;20054;-73
2022/07/15 00:43:57;;;;;;;2.25;0.93;;;18.70;86.50;;;19.06;67.46;101472.91;5169297;28;20499;-74
2022/07/15 00:46:30;;;;;;;1.38;0.98;;;18.70;86.90;;;19.02;67.64;101471.09;5169256;28;20046;-74
2022/07/15 00:49:06;;;;;;;2.10;0.80;;;18.60;87.70;;;18.98;67.84;101474.56;5185307;28;20044;-74
2022/07/15 00:51:43;;;;;;;1.63;1.00;;;18.60;87.60;;;18.94;68.17;101470.13;5186673;28;20057;-74
2022/07/15 00:54:18;;;;;;;2.35;0.90;;;18.60;88.00;;;18.89;68.47;101472.69;5185470;28;20434;-74
2022/07/15 00:56:54;;;;;;;2.22;1.02;;;18.50;88.40;;;18.85;68.86;101467.38;5186648;28;20045;-73
2022/07/15 00:59:34;;;;;;;1.38;0.90;;;18.50;88.90;;;18.81;69.03;101471.72;5185171;28;20045;-75
2022/07/15 01:02:06;;;;;;;;;;;18.40;89.30;;;18.78;69.36;101470.78;5186788;28;20495;-74
2022/07/15 01:04:39;;;;;;;2.25;1.00;;;18.40;89.60;;;18.74;69.42;101472.53;5168921;28;19925;-74
2022/07/15 01:07:14;;;;;;;1.75;0.82;;;18.40;90.00;;;18.72;69.63;101481.31;5168701;28;20050;-74
2022/07/15 01:09:47;;;;;;;2.50;1.17;;;18.30;90.20;;;18.66;70.03;101472.44;5184992;28;20057;-74
2022/07/15 01:12:19;;;;;;;2.92;1.08;;;18.30;90.40;;;18.61;70.21;101478.50;5168588;28;20064;-74
2022/07/15 01:14:52;;;;;;;1.30;0.80;;;18.30;90.60;;;18.58;70.82;101468.78;5168559;28;20410;-73
2022/07/15 01:17:26;;;;;;;1.92;1.10;;;18.20;90.90;;;18.55;70.96;101478.41;5184881;28;20133;-73
2022/07/15 01:19:58;;;;;;;3.53;1.00;;;18.20;91.00;;;18.52;71.33;101476.63;5168397;28;20056;-74
2022/07/15 01:22:34;;;;;;;2.20;1.17;;;18.20;91.30;;;18.49;71.69;101478.31;5168542;28;20045;-75
2022/07/15 01:25:07;;;;;;;1.75;1.00;;;18.10;91.50;;;18.47;71.97;101490.63;5168416;28;20116;-73
2022/07/15 01:27:41;;;;;;;2.30;1.00;;;18.10;91.70;;;18.41;72.26;101480.88;5185721;28;20131;-75
2022/07/15 01:30:14;;;;;;;2.08;1.00;;;18.10;92.00;;;18.39;72.58;101490.53;5184649;28;20132;-74
2022/07/15 01:32:46;;;;;;;1.33;1.23;;;18.00;92.20;;;18.33;72.79;101480.78;5168317;28;20046;-73
2022/07/15 01:35:18;;;;;;;1.63;1.02;;;18.00;92.40;;;18.33;73.01;101487.81;5168163;28;20246;-74
2022/07/15 01:37:54;;;;;;;3.45;1.23;;;18.00;92.60;;;18.33;73.21;101482.53;5185098;28;20526;-73
2022/07/15 01:40:27;;;;;;;1.85;1.10;;;17.90;92.80;;;18.30;73.40;101488.63;5184481;28;20053;-74
2022/07/15 01:42:59;;;;;;;1.30;1.20;;;17.90;93.00;;;18.30;73.55;101490.38;5185624;28;20541;-74
2022/07/15 01:45:32;;;;;;;1.23;1.10;;;17.90;93.20;;;18.28;73.72;101485.09;5168064;28;20038;-74
2022/07/15 01:48:06;;;;;;;4.13;1.30;;;17.90;93.40;;;18.27;73.84;101493.00;5167983;28;20052;-74
2022/07/15 01:51:01;;;;;;;3.58;1.10;;;17.90;93.80;;;18.24;73.91;101490.28;5185378;28;20100;-75
2022/07/15 01:53:34;;;;;;;1.45;1.20;;;17.80;93.70;;;18.20;74.19;101494.66;5168209;28;20049;-74
2022/07/15 01:56:08;;;;;;;1.27;1.08;;;17.80;93.90;;;18.18;74.59;101499.00;5184281;28;20096;-74
2022/07/15 01:58:41;;;;;;;1.92;1.05;;;17.80;94.20;;;18.14;74.80;101489.28;5167567;28;20042;-75
2022/07/15 02:01:17;;;;;;;2.42;1.05;;;17.80;94.30;;;18.11;75.17;101498.03;5184141;28;20064;-74
2022/07/15 02:03:50;;;;;;;1.73;1.10;;;17.70;94.60;;;18.10;75.30;101496.25;5184198;28;20060;-73
2022/07/15 02:06:22;;;;;;;1.27;1.00;;;17.70;94.80;;;18.10;75.45;101500.66;5167877;28;20049;-74
2022/07/15 02:08:56;;;;;;;1.67;1.15;;;17.70;94.90;;;18.08;75.80;101500.63;5167676;28;20042;-73
2022/07/15 02:11:31;;;;;;;2.60;1.10;;;17.70;95.20;;;18.09;76.33;101502.41;5167715;28;20659;-72
2022/07/15 02:14:04;;;;;;;2.15;1.20;;;17.70;95.40;;;18.09;76.17;101497.13;5167811;28;20483;-73
2022/07/15 02:16:38;;;;;;;3.60;1.40;;;17.70;95.50;;;18.08;76.31;101495.34;5185471;28;20038;-73
2022/07/15 02:19:14;;;;;;;3.17;1.20;;;17.70;95.70;;;18.09;76.54;101499.75;5183865;28;20133;-74
2022/07/15 02:21:47;;;;;;;1.98;1.38;;;17.70;95.90;;;18.10;76.73;101496.25;5184023;28;20069;-73
2022/07/15 02:24:21;;;;;;;2.17;1.10;;;17.70;96.10;;;18.11;76.65;101498.03;5183959;28;20050;-75
2022/07/15 02:26:53;;;;;;;3.65;1.30;;;17.70;96.20;;;18.13;76.55;101500.72;5185218;28;20592;-74
2022/07/15 02:29:26;;;;;;;2.13;1.30;;;17.70;96.20;;;18.13;76.95;101504.25;5183822;28;20069;-75
2022/07/15 02:31:58;;;;;;;3.20;1.50;;;17.70;96.30;;;18.12;76.82;101509.47;5167227;28;20528;-75
2022/07/15 02:34:30;;;;;;;4.93;1.80;;;17.70;96.40;;;18.12;76.89;101507.72;5183912;28;20085;-75
2022/07/15 02:37:02;;;;;;;4.40;1.50;;;17.70;96.50;;;18.09;77.04;101498.88;5183852;28;20048;-75
2022/07/15 02:39:38;;;;;;;1.48;1.30;;;17.70;96.60;;;18.10;77.11;101495.38;5183784;28;20065;-74
2022/07/15 02:42:10;;;;;;;2.58;1.40;;;17.70;96.70;;;18.11;76.82;101500.66;5167458;28;20554;-73
2022/07/15 02:44:45;;;;;;;2.05;1.38;;;17.70;96.70;;;18.09;76.83;101506.78;5167604;28;20053;-74
2022/07/15 02:47:17;;;;;;;2.70;1.35;;;17.70;96.70;;;18.04;77.00;101513.75;5167205;28;20510;-74
2022/07/15 02:49:50;;;;;;;4.82;1.50;;;17.70;96.80;;;17.99;76.98;101508.38;5170608;28;20418;-74
2022/07/15 02:52:22;;;;;;;2.08;1.42;;;17.60;96.90;;;17.99;77.21;101518.06;5171447;28;20037;-73
2022/07/15 02:54:58;;;;;;;3.83;1.38;;;17.60;97.00;;;17.96;77.38;101513.63;5171426;28;20046;-73
2022/07/15 02:57:30;;;;;;;1.50;1.10;;;17.50;97.10;;;17.94;77.37;101515.38;5187290;28;20503;-74
2022/07/15 03:00:04;;;;;;;1.17;1.05;;;17.60;97.20;;;17.95;77.54;101517.13;5171343;28;20136;-74
2022/07/15 03:02:37;;;;;;;3.65;1.40;;;17.50;97.40;;;17.94;77.70;101523.28;5186219;28;20095;-73
2022/07/15 03:05:13;;;;;;;2.78;1.20;;;17.60;97.50;;;17.89;77.80;101522.31;5209292;28;20136;-73
2022/07/15 03:07:46;;;;;;;1.60;1.20;;;17.50;97.50;;;17.88;77.66;101524.06;5191215;28;20041;-73
2022/07/15 03:10:24;;;;;;;4.45;1.35;;;17.50;97.60;;;17.88;77.84;101525.81;5191282;28;20056;-73
2022/07/15 03:12:56;;;;;;;2.40;1.13;;;17.50;97.70;;;17.89;77.75;101525.84;5191337;28;20069;-74
2022/07/15 03:15:28;;;;;;;2.08;1.42;;;17.50;97.70;;;17.88;77.66;101529.34;5191515;28;20045;-74
2022/07/15 03:18:01;;;;;;;2.67;1.30;;;17.50;97.70;;;17.88;78.02;101542.53;5191094;28;20041;-73
2022/07/15 03:20:33;;;;;;;1.98;1.20;;;17.50;97.90;;;17.90;78.09;101547.81;5191178;28;20049;-73
2022/07/15 03:23:06;;;;;;;1.85;1.30;;;17.50;97.90;;;17.88;77.86;101541.63;5191202;28;20091;-74
2022/07/15 03:25:40;;;;;;;2.47;1.25;;;17.50;98.10;;;17.89;77.99;101549.56;5191110;28;20053;-73
2022/07/15 03:28:19;;;;;;;2.78;1.40;;;17.50;98.00;;;17.88;77.92;101552.19;5190879;28;20502;-73
2022/07/15 03:30:51;;;;;;;2.42;1.48;;;17.50;98.00;;;17.86;78.09;101557.41;5208571;28;20037;-75
2022/07/15 03:33:24;;;;;;;2.72;1.33;;;17.50;98.10;;;17.85;77.97;101552.13;5191073;28;20041;-74
2022/07/15 03:35:56;;;;;;;2.67;1.40;;;17.40;98.00;;;17.85;77.82;101560.03;5191038;28;20526;-73
2022/07/15 03:38:28;;;;;;;2.53;1.25;;;17.50;98.10;;;17.86;77.69;101553.88;5190644;28;20088;-73
2022/07/15 03:41:01;;;;;;;3.03;1.20;;;17.50;98.00;;;17.87;77.70;101560.97;5191058;28;20041;-74
2022/07/15 03:43:35;;;;;;;2.85;1.42;;;17.50;98.10;;;17.86;77.53;101560.06;5191001;28;20045;-74
2022/07/15 03:46:08;;;;;;;2.47;1.05;;;17.50;98.00;;;17.88;77.16;101562.75;5190809;28;20045;-74
2022/07/15 03:48:42;;;;;;;2.75;1.30;;;17.50;97.90;;;17.90;76.87;101572.44;5190504;28;20033;-72
2022/07/15 03:51:14;;;;;;;2.30;1.10;;;17.50;97.80;;;17.92;76.55;101567.19;5190866;28;20045;-75
2022/07/15 03:53:46;;;;;;;2.08;0.95;;;17.50;97.70;;;17.97;76.13;101568.16;5190541;28;20053;-74
2022/07/15 03:56:20;;;;;;;2.40;1.13;;;17.60;97.50;;;17.98;75.83;101575.19;5190569;28;20049;-73
2022/07/15 03:58:52;;;;;;;3.25;1.10;;;17.60;97.70;;;18.00;75.42;101578.78;5189590;28;20506;-75
2022/07/15 04:01:24;;;;;;;2.80;1.10;;;17.60;97.20;;;18.00;75.23;101584.06;5208007;28;20064;-75
2022/07/15 04:03:57;;;;;;;3.95;1.10;;;17.60;97.10;;;18.01;74.92;101580.56;5190396;28;20046;-74
2022/07/15 04:06:29;;;;;;;1.67;1.05;;;17.60;97.00;;;18.04;74.81;101591.13;5190406;28;20053;-74
2022/07/15 04:09:01;;;;;;;1.50;1.10;;;17.70;97.30;;;18.05;74.55;101595.53;5190075;28;20045;-74
2022/07/15 04:11:37;;;;;;;2.35;0.85;;;17.70;96.90;;;18.08;74.42;101598.25;5207803;28;20128;-75
2022/07/15 04:14:12;;;;;;;1.38;0.90;;;17.70;96.80;;;18.10;74.41;101600.91;5190531;28;20049;-74
2022/07/15 04:16:45;;;;;;;3.30;0.90;;;17.70;96.80;;;18.09;74.21;101600.03;5190108;28;20536;-73
2022/07/15 04:19:34;;;;;;;2.60;0.82;;;17.70;96.70;;;18.11;73.95;101600.03;5189830;28;20041;-74
2022/07/15 04:22:08;;;;;;;;;;;17.70;96.60;;;18.12;73.53;101600.06;5190399;28;20053;-73
2022/07/15 04:24:48;;;;;;;1.80;1.25;;;17.70;96.40;;;18.16;73.50;101609.81;5206606;28;20336;-74
2022/07/15 04:27:24;;;;;;;3.20;1.20;;;17.80;96.40;;;18.16;73.27;101596.63;5189779;28;20053;-74
2022/07/15 04:29:56;;;;;;;1.73;0.90;;;17.80;96.60;;;18.21;73.15;101603.75;5189861;28;20038;-73
2022/07/15 04:32:30;;;;;;;5.55;1.70;;;17.80;96.20;;;18.23;73.09;101608.16;5322457;22;20382;-71
2022/07/15 04:35:02;;;;;;;2.22;0.88;;;17.80;96.20;;;18.24;73.00;101601.13;5203279;28;20041;-71
2022/07/15 04:37:34;;;;;;;1.92;0.93;;;17.90;96.20;;;18.24;72.96;101603.78;5189202;28;20072;-72
2022/07/15 04:40:09;;;;;;;3.63;1.30;;;17.90;96.10;;;18.25;73.10;101616.09;5205644;28;20061;-72
2022/07/15 04:42:44;;;;;;;3.55;0.93;;;17.90;96.10;;;18.25;72.97;101610.81;5205883;28;20049;-72
2022/07/15 04:45:19;;;;;;;1.65;0.80;;;17.90;96.10;;;18.24;73.16;101614.31;5189447;28;20044;-72
2022/07/15 04:47:51;;;;;;;1.38;0.77;;;17.90;96.10;;;18.24;73.10;101616.97;5189557;28;20053;-71
2022/07/15 04:50:46;;;;;;;4.88;1.30;;;17.90;96.20;;;18.26;73.38;101618.78;5189230;28;20045;-71
2022/07/15 04:53:20;;;;;;;3.45;1.02;;;17.90;96.20;;;18.30;73.34;101619.72;5189216;28;20188;-71
2022/07/15 04:55:54;;;;;;;2.25;0.93;;;17.90;96.20;;;18.31;73.24;101621.47;5189617;28;20045;-72
2022/07/15 04:58:27;;;;;;;2.80;1.10;;;17.90;96.10;;;18.31;73.24;101616.19;5188738;28;20053;-71
2022/07/15 05:00:59;;;;;;;3.20;1.58;;;18.00;96.20;;;18.32;73.22;101620.59;5189196;28;20083;-72
2022/07/15 05:03:32;;;;;;;2.88;0.93;;;17.90;96.10;;;18.32;73.37;101617.97;5206898;28;20033;-72
2022/07/15 05:06:06;;;;;;;2.20;1.15;;;18.00;96.20;;;18.32;73.49;101624.16;5189012;28;20079;-72
2022/07/15 05:08:41;;;;;;;3.20;1.20;;;18.00;96.20;;;18.30;73.51;101617.06;5188668;28;20037;-72
2022/07/15 05:11:15;;;;;;;3.88;1.30;;;18.00;96.20;;;18.32;73.65;101623.25;5187993;28;20045;-71
2022/07/15 05:13:48;;;;;;;4.05;1.40;;;18.00;96.20;;;18.31;73.80;101622.38;5188846;28;20096;-72
2022/07/15 05:16:22;;;;;;;2.67;1.17;;;18.00;96.30;;;18.33;73.87;101625.06;5188781;28;20520;-71
2022/07/15 05:18:55;;;;;;;5.90;1.45;;;18.00;96.30;;;18.33;74.03;101631.22;5188894;28;20042;-71
2022/07/15 05:21:28;;;;;;;3.75;1.40;;;18.00;96.40;;;18.34;74.14;101621.53;5188644;28;20122;-72
2022/07/15 05:24:01;;;;;;;2.35;1.20;;;18.00;96.40;;;18.42;74.45;101630.47;5188699;28;20053;-71
2022/07/15 05:26:36;;;;;;;5.03;1.65;;;18.00;96.60;;;18.47;74.16;101628.78;5188886;28;20041;-71
2022/07/15 05:29:11;;;;;;;4.38;1.48;;;18.10;96.60;;;18.50;74.28;101631.47;5188556;28;20049;-72
2022/07/15 05:31:44;;;;;;;4.70;1.40;;;18.10;96.50;;;18.55;74.04;101632.44;5206174;28;20136;-72
2022/07/15 05:34:17;;;;;;;4.57;1.45;;;18.20;96.60;;;18.61;74.04;101632.53;5188973;28;20498;-72
2022/07/15 05:36:49;;;;;;;4.38;1.20;;;18.20;96.50;;;18.68;74.12;101634.44;5188553;28;20056;-72
2022/07/15 05:39:23;;;;;;;;;;;18.30;96.50;;;18.74;74.05;101627.47;5204778;28;20057;-71
2022/07/15 05:41:59;;;;;;;4.10;1.50;;;18.30;96.50;;;18.81;74.12;101635.50;5204715;28;20140;-71
2022/07/15 05:44:35;;;;;;;2.10;1.15;;;18.40;96.50;;;18.86;73.61;101638.22;5188443;28;20053;-72
2022/07/15 05:47:08;;;;;;;5.57;1.60;;;18.40;96.40;;;18.87;73.58;101635.59;5188252;28;20343;-71
2022/07/15 05:49:41;;;;;;;4.75;1.48;;;18.50;96.30;;;18.89;73.11;101633.84;5188179;28;20049;-71
2022/07/15 05:52:13;;;;;;;4.45;1.55;;;18.50;96.10;;;18.93;72.94;101634.78;5205874;28;20457;-71
2022/07/15 05:54:47;;;;;;;3.38;1.40;;;18.50;96.10;;;19.00;72.86;101644.56;5188000;28;20055;-71
2022/07/15 05:57:19;;;;;;;3.53;1.60;;;18.60;96.00;;;19.00;72.26;101634.00;5174146;28;20052;-72
2022/07/15 05:59:53;;;;;;;3.80;1.27;;;18.60;95.80;;;19.03;71.92;101641.06;5171732;28;20403;-70
2022/07/15 06:02:25;;;;;;;2.95;1.23;;;18.60;95.60;;;19.08;71.52;101634.97;5167656;28;20049;-70
2022/07/15 06:04:57;;;;;;;3.13;1.30;;;18.60;95.40;;;19.15;71.12;101631.56;5184096;28;20049;-70
2022/07/15 06:07:30;;;;;;;4.30;1.33;;;18.70;95.30;;;19.29;71.06;101628.19;5190129;28;20229;-70
2022/07/15 06:10:02;;;;;;;3.75;1.60;;;18.80;95.30;;;19.44;70.96;101623.09;5188230;28;20061;-70
2022/07/15 06:12:36;;;;;;;8.25;1.80;;;18.90;95.30;;;19.56;70.51;101628.53;5170395;28;20506;-70
2022/07/15 06:15:11;;;;;;;7.55;2.28;;;19.00;95.10;;;19.79;70.36;101637.63;5190379;28;20434;-71
2022/07/15 06:17:43;;;;;;;2.58;1.33;;;19.20;95.10;;;20.09;69.00;101635.28;5170950;28;20076;-71
2022/07/15 06:20:15;;;;;;;5.55;1.30;;;19.50;94.70;;;20.33;67.85;101633.69;5177805;28;20136;-71
2022/07/15 06:22:47;;;;;;;6.03;1.90;;;19.70;94.10;;;20.66;66.94;101641.91;5186048;28;20045;-71
2022/07/15 06:25:20;;;;;;;5.35;1.50;;;19.90;93.80;;;20.98;65.14;101643.00;5184494;28;20516;-71
2022/07/15 06:27:54;;;;;;;4.28;1.30;;;20.20;93.20;;;21.20;63.77;101644.00;5169717;28;20085;-71
2022/07/15 06:30:28;;;;;;;4.78;1.70;;;20.40;92.30;;;21.44;62.56;101635.28;5183806;28;20143;-70
2022/07/15 06:33:00;;;;;;;2.28;1.40;;;20.70;91.70;;;21.72;60.90;101646.88;5174874;28;20056;-71
2022/07/15 06:35:33;;;;;;;4.65;1.02;;;20.90;90.90;;;21.85;59.94;101645.13;5190601;28;20124;-71
2022/07/15 06:38:05;;;;;;;3.05;1.00;;;21.10;90.10;;;21.95;58.87;101642.47;5194700;28;20042;-71
2022/07/15 06:40:38;;;;;;;3.00;1.17;;;21.20;88.80;;;21.98;58.07;101651.34;5179178;28;20048;-71
2022/07/15 06:43:10;;;;;;;6.05;1.45;;;21.30;87.40;;;22.10;57.91;101646.06;5186839;28;20041;-71
2022/07/15 06:46:03;;;;;;;2.92;0.90;;;21.40;86.90;;;22.19;56.57;101649.63;5196683;28;20114;-71
2022/07/15 06:48:35;;;;;;;3.30;0.88;;;21.50;85.20;;;22.31;55.48;101648.75;5193292;28;20041;-71
2022/07/15 06:51:07;;;;;;;1.80;0.80;;;21.60;83.30;;;22.35;55.06;101642.53;5184009;28;20386;-71
2022/07/15 06:53:40;;;;;;;2.83;0.82;;;21.70;82.60;;;22.16;54.01;101648.72;5213928;28;20048;-71
2022/07/15 06:56:14;;;;;;;1.92;0.65;;;21.60;80.50;;;22.03;54.27;101649.56;5169372;28;20123;-71
2022/07/15 06:58:46;;;;;;;2.47;0.82;;;21.50;80.50;;;22.03;53.94;101647.78;5174793;28;20045;-71
2022/07/15 07:01:20;;;;;;;0.88;0.60;;;21.40;80.50;;;22.10;53.58;101654.03;5187235;28;20104;-71
2022/07/15 07:03:52;;;;;;;2.30;0.80;;;21.50;79.20;;;22.32;53.21;101647.88;5184313;28;20092;-71
2022/07/15 07:06:26;;;;;;;1.73;0.60;;;21.60;78.90;;;22.57;51.95;101658.47;5187458;28;20061;-67
2022/07/15 07:08:58;;;;;;;2.50;0.75;;;21.80;77.40;;;22.81;52.29;101652.22;5205024;28;20045;-68
2022/07/15 07:11:32;;;;;;;2.70;0.95;;;22.00;77.80;;;22.88;51.72;101646.91;5212190;28;20131;-68
2022/07/15 07:14:04;;;;;;;1.92;0.60;;;22.10;76.60;;;22.93;50.87;101652.22;5202687;28;20038;-69
2022/07/15 07:16:38;;;;;;;3.60;0.90;;;22.20;75.60;;;23.02;51.87;101649.56;5205329;28;20096;-68
2022/07/15 07:19:11;;;;;;;2.35;0.70;;;22.30;76.30;;;23.15;50.79;101653.94;5205021;28;20049;-68
2022/07/15 07:21:43;;;;;;;2.90;0.90;;;22.40;75.20;;;23.33;50.44;101662.72;5187409;28;20045;-68
2022/07/15 07:24:15;;;;;;;2.85;0.82;;;22.50;74.50;;;23.58;48.91;101660.84;5205092;28;20061;-68
2022/07/15 07:26:47;;;;;;;1.92;0.73;;;22.70;72.90;;;23.73;47.65;101658.13;5205041;28;20048;-68
2022/07/15 07:29:22;;;;;;;1.90;0.70;;;22.90;71.40;;;23.86;47.20;101659.81;5205432;28;20045;-68
2022/07/15 07:31:55;;;;;;;2.25;0.95;;;23.00;70.40;;;23.97;46.91;101663.31;5204896;28;20041;-67
2022/07/15 07:34:27;;;;;;;3.08;0.80;;;23.10;69.80;;;23.95;46.83;101654.44;5188106;28;20164;-68
2022/07/15 07:37:00;;;;;;;2.13;0.70;;;23.10;69.20;;;23.76;46.84;101659.00;5208648;28;20055;-68
2022/07/15 07:39:32;;;;;;;2.03;0.80;;;23.00;69.20;;;23.54;47.48;101652.91;5207610;28;20048;-68
2022/07/15 07:42:04;;;;;;;1.33;0.50;;;22.80;69.40;;;23.37;47.60;101661.84;5207743;28;20099;-69
2022/07/15 07:44:37;;;;;;;2.20;0.82;;;22.70;69.40;;;23.45;47.39;101652.91;5208434;28;20042;-68
2022/07/15 07:47:11;;;;;;;2.13;0.90;;;22.70;69.40;;;23.68;47.42;101666.16;5208418;28;20487;-64
2022/07/15 07:49:44;;;;;;;2.13;0.55;;;22.90;69.50;;;23.82;46.48;101660.75;5208229;28;20064;-68
2022/07/15 07:52:16;;;;;;;2.25;0.70;;;22.90;68.40;;;24.00;46.21;101662.41;5208264;28;20045;-69
2022/07/15 07:54:48;;;;;;;3.15;0.90;;;23.10;67.80;;;23.98;45.77;101666.84;5203018;28;20498;-68
2022/07/15 07:57:20;;;;;;;2.15;0.70;;;23.10;67.30;;;23.58;46.45;101668.84;5207994;28;20124;-69
2022/07/15 07:59:52;;;;;;;1.75;0.63;;;23.00;67.10;;;23.24;47.04;101663.66;5207916;28;20045;-68
2022/07/15 08:02:26;;;;;;;5.60;0.70;;;22.70;67.70;;;23.07;48.28;101662.81;5207537;28;20109;-68
2022/07/15 08:04:58;;;;;;;3.22;0.73;;;22.50;68.60;;;22.96;47.96;101658.44;5207973;28;20041;-69
2022/07/15 08:07:30;;;;;;;1.48;0.60;;;22.40;68.80;;;23.30;47.39;101663.66;5206647;28;20071;-68
2022/07/15 08:10:02;;;;;;;2.92;0.82;;;22.50;69.20;;;23.88;46.23;101658.06;5207991;28;20049;-69
2022/07/15 08:12:36;;;;;;;1.05;0.40;;;22.80;68.20;;;24.43;43.61;101654.09;5207655;28;20490;-68
2022/07/15 08:15:13;;;;;;;9.20;1.38;;;23.10;65.70;;;24.59;42.92;101664.63;5207888;28;20124;-68
2022/07/15 08:17:47;;;;;;;4.70;0.90;;;23.40;64.50;;;24.30;43.49;101669.28;5203367;28;20053;-68
2022/07/15 08:20:19;;;;;;;;;;;23.30;64.10;;;23.92;44.38;101662.44;5187547;28;20046;-66
2022/07/15 08:22:58;;;;;;;1.67;0.70;;;23.20;64.70;;;23.63;46.16;101667.06;5185973;28;19966;-70
2022/07/15 08:25:33;;;;;;;13.13;1.70;;;22.90;65.90;;;23.43;47.58;101662.69;5187413;28;20098;-70
2022/07/15 08:28:07;;;;;;;3.22;0.90;;;22.80;67.00;;;24.22;46.32;101668.47;5169849;28;20072;-67
2022/07/15 08:30:39;;;;;;;2.08;0.65;;;23.00;67.70;;;;;;5187420;28;20046;-69
2022/07/15 08:33:12;;;;;;;3.08;0.70;;;23.50;65.50;;;26.11;41.16;101670.78;5187182;28;20050;-69
2022/07/15 08:35:45;;;;;;;3.50;0.80;;;23.90;63.80;;;26.05;41.02;101666.41;5191905;28;20034;-72
2022/07/15 08:38:17;;;;;;;1.40;0.70;;;24.10;63.40;;;26.12;40.26;101656.50;5207287;28;20537;-72
2022/07/15 08:40:50;;;;;;;4.60;1.00;;;24.20;61.70;;;26.51;39.58;101661.22;5206718;28;20552;-72
2022/07/15 08:43:22;;;;;;;1.65;0.80;;;24.40;61.20;;;26.36;39.57;101661.47;5206746;28;20045;-72
2022/07/15 08:45:55;;;;;;;2.03;0.50;;;24.40;61.00;;;26.18;38.90;101668.00;5207226;28;20042;-73
2022/07/15 08:48:33;;;;;;;1.95;0.70;;;24.30;59.90;;;27.57;36.38;101660.03;5207367;28;20387;-72
2022/07/15 08:51:08;;;;;;;1.58;0.40;;;24.90;58.10;;;29.80;33.55;101671.19;5207207;28;20041;-73
2022/07/15 08:53:40;;;;;;;0.75;0.52;;;26.10;56.50;;;31.69;30.78;101661.88;5207298;28;20046;-72
2022/07/15 08:56:12;;;;;;;3.80;0.60;;;27.60;54.20;;;33.20;29.09;101660.84;5206673;28;20061;-71
2022/07/15 08:58:45;;;;;;;1.50;0.40;;;28.70;51.50;;;33.50;28.24;101668.47;5206865;28;20072;-72
2022/07/15 09:01:17;;;;;;;0.65;0.40;;;29.40;49.80;;;33.84;28.29;101666.84;5222247;28;20375;-72
2022/07/15 09:03:51;;;;;;;0.95;0.22;;;29.80;49.40;;;34.53;27.54;101667.03;5206982;28;20124;-72
2022/07/15 09:06:35;;;;;;;1.65;0.50;;;30.40;48.30;;;35.10;26.66;101667.63;5207072;28;20042;-72
2022/07/15 09:09:31;;;;;;;1.60;0.47;;;30.90;47.00;;;35.39;26.26;101673.28;5207012;28;20079;-73
2022/07/15 09:12:06;;;;;;;2.33;0.60;;;31.30;46.40;;;33.85;26.87;101663.22;5206838;28;20033;-72
2022/07/15 09:14:42;;;;;;;1.55;0.50;;;30.70;46.10;;;32.11;28.84;101656.56;5222322;28;20045;-72
2022/07/15 09:17:22;;;;;;;2.10;1.10;;;29.80;46.80;;;31.34;29.63;101663.22;5207011;28;20030;-72
2022/07/15 09:20:13;;;;;;;1.77;0.80;;;29.10;47.60;;;30.03;31.24;101663.28;5221896;28;20506;-68
2022/07/15 09:22:51;;;;;;;3.05;0.80;;;28.30;48.60;;;28.89;33.06;101663.09;5221783;28;20076;-68
2022/07/15 09:25:24;;;;;;;3.25;0.85;;;27.40;50.20;;;28.16;33.79;101667.63;5221931;28;20049;-68
2022/07/15 09:28:00;;;;;;;1.05;0.50;;;26.80;50.70;;;27.78;34.64;101660.53;5188341;28;20044;-69
2022/07/15 09:33:36;;;;;;;1.40;0.70;;;25.90;53.30;;;26.74;36.69;101668.84;5206216;28;20045;-68
2022/07/15 09:36:16;;;;;;;1.95;0.60;;;25.50;53.60;;;26.44;37.35;101656.00;5206372;28;20045;-67
2022/07/15 09:38:51;;;;;;;1.15;0.60;;;25.30;53.90;;;26.09;37.37;101657.47;5206107;28;20041;-68
2022/07/15 09:41:33;;;;;;;2.53;0.93;;;25.00;53.90;;;25.58;38.54;101659.06;5206071;28;20121;-68
2022/07/15 09:44:08;;;;;;;3.45;0.73;;;24.70;54.90;;;25.15;39.32;101662.28;5206295;28;20045;-68
2022/07/15 09:46:45;;;;;;;1.33;0.70;;;24.30;55.50;;;24.84;39.67;101657.28;5206149;28;20507;-68
2022/07/15 09:49:32;;;;;;;2.70;0.80;;;24.10;56.00;;;24.98;40.29;101661.56;5205821;28;20042;-68
2022/07/15 09:52:09;;;;;;;1.35;0.70;;;24.00;56.50;;;25.10;39.92;101667.69;5205997;28;20124;-68
2022/07/15 09:54:43;;;;;;;2.65;1.02;;;24.10;56.40;;;24.98;40.42;101659.78;5206046;28;20111;-67
2022/07/15 09:57:18;;;;;;;2.25;0.90;;;24.10;56.60;;;24.69;40.59;101670.72;5205247;28;20050;-68
2022/07/15 09:59:51;;;;;;;1.45;0.80;;;23.90;56.80;;;24.49;41.49;101668.25;5205860;28;20038;-68
2022/07/15 10:02:26;;;;;;;1.30;0.73;;;23.80;57.30;;;24.35;41.78;101668.38;5205971;28;20042;-68
2022/07/15 10:04:58;;;;;;;4.82;1.10;;;23.70;57.70;;;24.24;42.80;101677.31;5205996;28;20046;-68
2022/07/15 10:07:32;;;;;;;2.13;1.05;;;23.50;58.80;;;24.12;43.75;101662.31;5205751;28;20072;-69
2022/07/15 10:10:05;;;;;;;2.10;1.23;;;23.50;59.80;;;24.23;43.88;101672.88;5205759;28;20494;-68
2022/07/15 10:12:58;;;;;;;2.85;1.10;;;23.50;60.10;;;24.44;43.21;101669.19;5204948;28;20045;-68
2022/07/15 10:15:45;;;;;;;2.13;1.10;;;23.60;59.60;;;24.83;42.03;101665.25;5199306;28;20387;-68
2022/07/15 10:18:35;;;;;;;2.00;0.90;;;23.80;59.00;;;25.20;41.60;101662.22;5186424;28;20053;-69
2022/07/15 10:21:25;;;;;;;1.30;0.90;;;24.10;58.40;;;25.32;40.82;101654.97;5205122;28;20045;-69
2022/07/15 10:24:18;;;;;;;1.83;0.90;;;24.30;57.60;;;25.21;40.88;101653.31;5206027;28;20512;-68
2022/07/15 10:27:08;;;;;;;0.88;0.80;;;24.30;57.40;;;24.82;41.22;101650.16;5205764;28;20042;-69
2022/07/15 10:29:42;;;;;;;2.05;0.85;;;24.10;57.60;;;24.75;41.95;101643.13;5205757;28;20168;-68
2022/07/15 10:34:53;;;;;;;3.00;1.50;;;24.10;58.00;;;25.06;39.52;101644.59;5184131;28;20074;-68
2022/07/15 10:37:28;;;;;;;3.83;1.45;;;24.20;56.30;;;25.26;40.44;101655.03;5195864;28;20046;-68
2022/07/15 10:40:06;;;;;;;4.28;1.45;;;24.30;56.80;;;25.51;40.46;101642.25;5184944;28;20042;-67
2022/07/15 10:43:01;;;;;;;8.18;1.90;;;24.50;57.10;;;25.73;40.96;101647.31;5185198;28;20046;-68
2022/07/15 10:45:33;;;;;;;14.00;4.38;;;24.80;58.00;;;25.83;41.47;101638.28;5167453;28;20050;-68
2022/07/15 10:48:27;;;;;;;12.32;3.97;;;24.80;57.70;;;25.89;41.22;101641.75;5185087;28;20116;-69